Time;durP1;ratioP1;P1;durP2;ratioP2;P2;SDS_P1;SDS_P2;PMS_P1;PMS_P2;Temp;Humidity;BMP_temperature;BMP_pressure;BME280_temperature;BME280_humidity;BME280_pressure;Samples;Min_cycle;Max_cycle;Signal;HPM_P1;HPM_P2
2024/03/31 00:00:16;;;;;;;11.23;3.35;;;;;;;11.75;76.46;98741.16;5011806;28;20029;-84
2024/03/31 00:02:42;;;;;;;8.18;3.50;;;;;;;11.50;72.87;98654.59;5009325;28;20049;-81
2024/03/31 00:05:08;;;;;;;9.15;3.20;;;;;;;12.08;71.51;98704.94;5010363;28;20022;-84
2024/03/31 00:07:34;;;;;;;9.40;3.25;;;;;;;12.49;70.40;98728.84;5010575;28;20037;-84
2024/03/31 00:10:00;;;;;;;6.43;3.08;;;;;;;12.39;69.93;98725.25;5011379;28;20053;-81
2024/03/31 00:12:27;;;;;;;10.60;3.83;;;;;;;12.90;68.60;98775.72;5010747;28;20028;-81
2024/03/31 00:14:53;;;;;;;6.25;2.95;;;;;;;12.93;67.73;98776.81;5011698;28;20037;-81
2024/03/31 00:17:18;;;;;;;8.10;3.00;;;;;;;12.65;69.04;98745.34;5010218;28;20044;-81
2024/03/31 00:19:44;;;;;;;9.45;3.83;;;;;;;12.48;69.24;98717.00;5009166;28;20018;-81
2024/03/31 00:22:10;;;;;;;8.95;4.10;;;;;;;12.59;70.11;98761.78;5011309;28;20053;-81
2024/03/31 00:24:35;;;;;;;8.65;4.07;;;;;;;12.36;70.30;98753.84;5011422;28;20109;-83
2024/03/31 00:27:01;;;;;;;11.82;3.70;;;;;;;12.21;72.20;98755.53;5010408;28;20025;-81
2024/03/31 00:29:26;;;;;;;16.38;4.07;;;;;;;12.19;72.60;98769.81;5010376;28;20013;-83
2024/03/31 00:31:51;;;;;;;9.25;4.00;;;;;;;11.87;73.70;98727.78;5010061;28;20021;-80
2024/03/31 00:34:17;;;;;;;10.10;3.85;;;;;;;11.60;74.09;98703.28;5011065;28;21006;-80
2024/03/31 00:36:45;;;;;;;11.70;3.53;;;;;;;11.47;73.04;98685.91;5013347;28;20497;-80
2024/03/31 00:39:11;;;;;;;9.90;4.35;;;;;;;11.35;71.99;98687.47;5018999;28;20113;-80
2024/03/31 00:41:36;;;;;;;8.48;3.35;;;;;;;11.69;71.11;98736.63;5013321;28;20125;-82
2024/03/31 00:44:03;;;;;;;8.30;3.47;;;;;;;11.57;70.60;98715.25;5015941;28;20026;-81
2024/03/31 00:46:29;;;;;;;12.68;3.05;;;;;;;11.64;70.58;98720.56;5031963;28;20045;-84
2024/03/31 00:48:54;;;;;;;7.78;3.67;;;;;;;11.52;71.48;98730.41;5030120;28;20454;-81
2024/03/31 00:51:20;;;;;;;8.48;3.20;;;;;;;11.25;72.04;98700.41;5013460;28;20107;-80
2024/03/31 00:53:45;;;;;;;10.27;3.40;;;;;;;11.16;71.62;98696.72;5013473;28;20053;-81
2024/03/31 00:56:11;;;;;;;8.25;3.00;;;;;;;11.52;71.31;98751.75;5013621;28;20041;-81
2024/03/31 00:58:40;;;;;;;9.07;3.75;;;;;;;11.36;72.05;98723.00;5013099;28;20037;-81
2024/03/31 01:01:06;;;;;;;15.98;3.53;;;;;;;11.36;73.00;98772.78;5013337;28;20058;-81
2024/03/31 01:03:31;;;;;;;11.52;3.30;;;;;;;11.54;72.37;98779.78;5013324;28;20088;-81
2024/03/31 01:06:07;;;;;;;12.70;3.53;;;;;;;11.51;73.46;98780.66;5013146;28;20030;-81
2024/03/31 01:08:32;;;;;;;10.93;3.10;;;;;;;11.19;74.11;98724.28;5011805;28;20026;-81
2024/03/31 01:10:59;;;;;;;9.18;3.28;;;;;;;11.45;74.20;98732.63;5013577;28;20506;-82
2024/03/31 01:13:24;;;;;;;7.85;3.05;;;;;;;11.75;72.66;98762.56;5014513;28;20033;-81
2024/03/31 01:15:50;;;;;;;8.95;3.60;;;;;;;11.49;72.77;98764.50;5013035;28;20426;-82
2024/03/31 01:18:15;;;;;;;7.88;3.35;;;;;;;11.04;74.93;98723.13;5012555;28;20478;-84
2024/03/31 01:20:41;;;;;;;11.15;3.83;;;;;;;11.03;79.61;98746.47;5012832;28;20028;-84
2024/03/31 01:23:11;;;;;;;10.02;3.72;;;;;;;10.84;80.86;98739.13;5013012;28;20014;-81
2024/03/31 01:25:36;;;;;;;9.93;3.60;;;;;;;10.99;81.96;98774.22;5012962;28;20088;-81
2024/03/31 01:28:03;;;;;;;10.35;4.15;;;;;;;11.13;82.16;98781.34;5013548;28;20422;-81
2024/03/31 01:30:28;;;;;;;10.77;3.75;;;;;;;11.27;81.63;98758.81;5012375;28;20064;-81
2024/03/31 01:32:56;;;;;;;10.60;4.28;;;;;;;11.28;80.39;98754.81;5012064;28;20042;-81
2024/03/31 01:35:22;;;;;;;;;;;;;;;11.52;78.30;98773.91;5013069;28;20026;-81
2024/03/31 01:37:51;;;;;;;9.05;3.40;;;;;;;11.32;76.67;98774.09;5012646;28;19932;-84
2024/03/31 01:40:17;;;;;;;9.93;3.40;;;;;;;10.54;77.14;98763.22;5013974;28;20072;-81
2024/03/31 01:42:44;;;;;;;11.55;4.10;;;;;;;10.59;78.99;98776.50;5012175;28;20053;-82
2024/03/31 01:45:14;;;;;;;7.55;3.90;;;;;;;10.33;80.73;98785.06;5013736;28;20030;-83
2024/03/31 01:47:39;;;;;;;12.95;4.13;;;;;;;10.05;84.56;98773.50;5012037;28;20080;-84
2024/03/31 01:50:05;;;;;;;13.27;3.97;;;;;;;9.97;82.99;98724.41;5012216;28;20433;-81
2024/03/31 01:52:30;;;;;;;8.50;3.97;;;;;;;10.13;82.28;98772.09;5013792;28;20026;-84
2024/03/31 01:54:56;;;;;;;11.57;4.03;;;;;;;9.94;82.47;98752.88;5012283;28;20033;-81
2024/03/31 01:57:22;;;;;;;6.75;3.10;;;;;;;10.07;81.83;98765.53;5012205;28;20121;-81
2024/03/31 01:59:47;;;;;;;10.23;4.03;;;;;;;10.24;81.54;98773.88;5011230;28;20473;-84
2024/03/31 02:02:12;;;;;;;9.93;3.70;;;;;;;10.37;82.26;98786.53;5011814;28;20444;-83
2024/03/31 02:04:38;;;;;;;7.65;3.55;;;;;;;10.29;81.79;98779.66;5012506;28;20478;-82
2024/03/31 02:07:03;;;;;;;8.00;3.45;;;;;;;10.33;81.00;98777.56;5013280;28;20041;-81
2024/03/31 02:09:29;;;;;;;6.53;3.67;;;;;;;10.27;79.53;98740.63;5012250;28;20041;-81
2024/03/31 02:11:55;;;;;;;7.28;3.80;;;;;;;10.30;78.96;98733.47;5012021;28;20018;-82
2024/03/31 02:14:21;;;;;;;4.68;2.38;;;;;;;10.75;77.34;98800.56;5011946;28;20025;-81
2024/03/31 02:16:46;;;;;;;8.27;3.28;;;;;;;10.79;75.99;98783.88;5010735;28;20037;-81
2024/03/31 02:19:12;;;;;;;7.60;3.10;;;;;;;10.74;76.51;98812.81;5011687;28;20029;-81
2024/03/31 02:21:37;;;;;;;10.90;3.13;;;;;;;10.63;76.76;98797.72;5011802;28;20049;-82
2024/03/31 02:24:04;;;;;;;9.32;2.97;;;;;;;10.32;78.00;98764.97;5011944;28;20064;-81
2024/03/31 02:26:29;;;;;;;7.13;3.03;;;;;;;10.31;78.62;98782.72;5011575;28;20438;-81
2024/03/31 02:28:55;;;;;;;7.35;3.10;;;;;;;10.59;79.91;98800.59;5011565;28;20117;-82
2024/03/31 02:31:21;;;;;;;10.68;2.97;;;;;;;10.62;79.26;98802.47;5011436;28;20026;-80
2024/03/31 02:33:46;;;;;;;11.30;3.35;;;;;;;10.51;80.38;98810.25;5010917;28;20038;-82
2024/03/31 02:36:11;;;;;;;8.70;2.83;;;;;;;10.50;78.94;98817.75;5011326;28;20544;-80
2024/03/31 02:38:37;;;;;;;9.80;2.97;;;;;;;10.40;77.92;98804.22;5011606;28;20026;-81
2024/03/31 02:41:03;;;;;;;9.23;2.88;;;;;;;10.00;78.59;98779.53;5011356;28;20018;-80
2024/03/31 02:43:28;;;;;;;7.13;3.65;;;;;;;9.93;79.39;98807.28;5012546;28;20535;-83
2024/03/31 02:45:54;;;;;;;9.40;3.45;;;;;;;10.02;80.97;98837.81;5012673;28;20546;-82
2024/03/31 02:48:19;;;;;;;7.03;2.90;;;;;;;9.57;80.96;98774.22;5011417;28;20036;-81
2024/03/31 02:50:48;;;;;;;9.32;3.83;;;;;;;9.85;81.11;98802.34;5010155;28;20064;-80
2024/03/31 02:53:13;;;;;;;9.75;3.08;;;;;;;9.76;81.95;98809.22;5011361;28;20470;-82
2024/03/31 02:55:39;;;;;;;7.55;3.67;;;;;;;9.87;81.71;98805.47;5010976;28;20105;-81
2024/03/31 02:58:04;;;;;;;9.07;2.75;;;;;;;9.77;82.00;98787.94;5011269;28;20045;-84
2024/03/31 03:00:30;;;;;;;8.55;3.65;;;;;;;9.94;82.35;98814.38;5011097;28;20496;-81
2024/03/31 03:02:55;;;;;;;8.13;2.97;;;;;;;9.97;81.54;98821.78;5009927;28;20117;-82
2024/03/31 03:05:20;;;;;;;9.10;3.80;;;;;;;9.95;80.34;98812.38;5010582;28;20022;-81
2024/03/31 03:07:46;;;;;;;8.32;2.70;;;;;;;9.87;79.87;98797.97;5011831;28;20477;-82
2024/03/31 03:10:11;;;;;;;10.30;3.80;;;;;;;10.09;79.36;98823.09;5009995;28;20494;-81
2024/03/31 03:12:37;;;;;;;7.13;2.50;;;;;;;9.94;80.14;98811.63;5010743;28;20544;-81
2024/03/31 03:15:03;;;;;;;9.23;3.17;;;;;;;10.14;80.92;98830.84;5010462;28;20530;-83
2024/03/31 03:17:28;;;;;;;7.53;3.00;;;;;;;10.10;80.04;98822.66;5011096;28;20541;-82
2024/03/31 03:19:57;;;;;;;7.20;2.83;;;;;;;10.23;80.07;98830.28;5009642;28;20025;-82
2024/03/31 03:22:22;;;;;;;14.95;4.00;;;;;;;9.79;79.68;98774.50;5011129;28;20024;-81
2024/03/31 03:24:52;;;;;;;9.52;3.20;;;;;;;10.10;79.59;98821.88;5010738;28;20017;-82
2024/03/31 03:27:18;;;;;;;7.60;3.35;;;;;;;10.00;79.97;98826.47;5011148;28;20026;-82
2024/03/31 03:29:43;;;;;;;11.20;4.00;;;;;;;10.06;80.06;98838.53;5010848;28;20478;-81
2024/03/31 03:32:09;;;;;;;9.27;3.47;;;;;;;9.93;80.38;98829.38;5011103;28;20025;-83
2024/03/31 03:34:34;;;;;;;10.48;3.60;;;;;;;9.88;80.38;98826.34;5010857;28;20076;-83
2024/03/31 03:36:59;;;;;;;7.38;3.55;;;;;;;9.70;81.10;98838.56;5010152;28;20029;-82
2024/03/31 03:39:25;;;;;;;7.05;3.63;;;;;;;9.18;81.58;98785.28;5011570;28;20018;-84
2024/03/31 03:41:50;;;;;;;7.57;3.33;;;;;;;9.17;83.07;98795.53;5011922;28;20037;-83
2024/03/31 03:44:16;;;;;;;15.27;4.13;;;;;;;9.02;83.11;98771.44;5010237;28;20033;-82
2024/03/31 03:46:41;;;;;;;6.53;2.90;;;;;;;9.57;83.21;98845.16;5011032;28;20109;-81
2024/03/31 03:49:07;;;;;;;12.63;3.45;;;;;;;9.62;83.45;98825.34;5010943;28;20449;-83
2024/03/31 03:51:32;;;;;;;12.25;3.28;;;;;;;9.51;83.49;98809.00;5011289;28;20034;-81
2024/03/31 03:53:57;;;;;;;9.85;3.90;;;;;;;9.66;83.53;98848.88;5010797;28;20436;-81
2024/03/31 03:56:23;;;;;;;11.50;3.42;;;;;;;9.67;83.14;98836.63;5010290;28;20125;-81
2024/03/31 03:58:48;;;;;;;13.07;4.40;;;;;;;9.50;82.57;98829.53;5011719;28;20025;-84
2024/03/31 04:01:13;;;;;;;7.13;3.28;;;;;;;9.51;83.14;98839.34;5010434;28;20018;-82
2024/03/31 04:03:39;;;;;;;7.47;3.63;;;;;;;9.55;84.38;98853.06;5009905;28;20137;-84
2024/03/31 04:06:05;;;;;;;6.25;2.97;;;;;;;9.20;83.90;98827.00;5010633;28;20472;-82
2024/03/31 04:08:30;;;;;;;6.80;3.05;;;;;;;9.40;84.20;98858.84;5009966;28;20034;-81
2024/03/31 04:10:55;;;;;;;8.68;3.30;;;;;;;9.51;84.68;98863.41;5009542;28;20018;-82
2024/03/31 04:13:21;;;;;;;7.55;3.00;;;;;;;9.34;83.61;98812.94;5009986;28;20389;-82
2024/03/31 04:16:00;;;;;;;8.18;3.58;;;;;;;9.87;83.48;98869.72;5010222;28;20045;-81
2024/03/31 04:18:25;;;;;;;7.82;3.40;;;;;;;9.73;83.02;98843.22;5010324;28;20109;-84
2024/03/31 04:20:50;;;;;;;12.35;4.50;;;;;;;9.85;82.19;98844.53;5011639;28;20110;-82
2024/03/31 04:23:16;;;;;;;20.55;7.03;;;;;;;9.88;81.61;98821.63;5011192;28;20437;-83
2024/03/31 04:25:42;;;;;;;11.35;3.20;;;;;;;9.80;80.41;98789.84;5010570;28;20030;-82
2024/03/31 04:28:07;;;;;;;7.80;3.30;;;;;;;10.16;79.17;98843.06;5013147;28;20413;-82
2024/03/31 04:30:42;;;;;;;9.65;3.60;;;;;;;10.39;79.86;98875.25;5014359;28;20037;-80
2024/03/31 04:33:09;;;;;;;7.03;3.10;;;;;;;10.54;78.37;98854.38;5014441;28;20030;-82
2024/03/31 04:35:36;;;;;;;8.00;3.30;;;;;;;10.77;77.17;98869.22;5015297;28;20577;-82
2024/03/31 04:38:02;;;;;;;;;;;;;;;11.09;77.17;98887.75;5014390;28;20021;-81
2024/03/31 04:40:27;;;;;;;;;;;;;;;11.36;76.52;98900.03;5013888;28;20008;-83
2024/03/31 04:42:53;;;;;;;;;;;;;;;11.49;76.18;98907.59;5012780;28;19965;-86
2024/03/31 04:45:18;;;;;;;;;;;;;;;11.70;75.47;98907.75;5014942;28;19909;-83
2024/03/31 04:47:43;;;;;;;;;;;;;;;11.63;74.47;98905.22;5015246;28;19909;-82
2024/03/31 04:50:08;;;;;;;;;;;;;;;11.79;72.71;98902.41;5014774;28;20381;-84
2024/03/31 04:52:34;;;;;;;;;;;;;;;11.94;71.84;98899.97;5013979;28;19919;-81
2024/03/31 04:55:00;;;;;;;;;;;;;;;12.01;70.92;98904.53;5015032;28;19909;-80
2024/03/31 04:57:25;;;;;;;;;;;;;;;12.25;69.38;98905.78;5014057;28;19931;-82
2024/03/31 04:59:50;;;;;;;;;;;;;;;12.53;68.02;98907.69;5013633;28;20316;-83
2024/03/31 05:02:16;;;;;;;;;;;;;;;12.73;68.63;98912.19;5006293;28;19909;-81
2024/03/31 05:04:41;;;;;;;;;;;;;;;12.56;70.49;98917.09;5013560;28;20353;-82
2024/03/31 05:07:06;;;;;;;;;;;;;;;12.94;68.67;98915.03;5014903;28;19921;-81
2024/03/31 05:09:33;;;;;;;;;;;;;;;13.23;67.19;98920.44;5013525;28;20389;-83
2024/03/31 05:11:58;;;;;;;;;;;;;;;13.83;65.98;98909.16;5013275;28;20288;-81
2024/03/31 05:14:23;;;;;;;;;;;;;;;14.24;63.00;98916.34;5010845;28;19915;-81
2024/03/31 05:16:49;;;;;;;;;;;;;;;14.37;62.93;98919.03;5013552;28;19962;-84
2024/03/31 05:19:14;;;;;;;;;;;;;;;14.32;63.51;98912.06;5013120;28;19920;-85
2024/03/31 05:21:39;;;;;;;;;;;;;;;14.70;62.84;98911.78;5013653;28;19909;-83
2024/03/31 05:24:04;;;;;;;;;;;;;;;14.94;61.40;98909.97;5013619;28;19910;-83
2024/03/31 05:26:30;;;;;;;;;;;;;;;15.14;61.28;98909.53;5013352;28;19960;-83
2024/03/31 05:28:55;;;;;;;;;;;;;;;15.41;59.15;98915.13;5013509;28;19913;-84
2024/03/31 05:31:20;;;;;;;;;;;;;;;15.67;60.56;98920.41;5013378;28;19944;-83
2024/03/31 05:33:45;;;;;;;;;;;;;;;15.70;61.71;98922.25;5013426;28;19915;-81
2024/03/31 05:36:11;;;;;;;;;;;;;;;16.11;61.07;98929.94;5012298;28;19949;-82
2024/03/31 05:38:36;;;;;;;;;;;;;;;16.28;60.44;98921.97;5013919;28;19978;-80
2024/03/31 05:41:02;;;;;;;;;;;;;;;16.64;60.43;98924.66;5013284;28;19956;-83
2024/03/31 05:43:27;;;;;;;;;;;;;;;17.09;60.04;98931.25;5012806;28;19940;-80
2024/03/31 05:45:53;;;;;;;;;;;;;;;17.26;59.25;98931.59;5012641;28;19913;-84
2024/03/31 05:48:18;;;;;;;;;;;;;;;17.61;57.86;98929.78;5006811;28;19925;-81
2024/03/31 05:50:44;;;;;;;;;;;;;;;18.02;55.03;98930.06;5010457;28;19966;-81
2024/03/31 05:53:09;;;;;;;;;;;;;;;18.18;52.87;98930.34;5012382;28;19910;-80
2024/03/31 05:55:34;;;;;;;;;;;;;;;18.26;52.33;98950.31;5010999;28;19933;-82
2024/03/31 05:58:00;;;;;;;;;;;;;;;18.51;52.34;98954.50;5012001;28;19920;-84
2024/03/31 06:00:26;;;;;;;;;;;;;;;18.95;50.86;98951.66;5011270;28;19905;-85
2024/03/31 06:02:51;;;;;;;;;;;;;;;19.35;49.64;98951.69;5011900;28;19974;-83
2024/03/31 06:05:17;;;;;;;;;;;;;;;19.87;48.06;98946.22;5011246;28;19990;-82
2024/03/31 06:07:45;;;;;;;;;;;;;;;20.09;47.08;98942.88;5010444;28;19921;-86
2024/03/31 06:10:11;;;;;;;;;;;;;;;20.71;46.89;98940.13;5012254;28;19913;-85
2024/03/31 06:12:36;;;;;;;;;;;;;;;21.26;45.31;98950.19;5012516;28;19913;-84
2024/03/31 06:15:01;;;;;;;;;;;;;;;21.40;44.04;98952.03;5011829;28;20333;-86
2024/03/31 06:17:27;;;;;;;;;;;;;;;21.31;44.24;98952.25;5010330;28;20001;-82
2024/03/31 06:19:52;;;;;;;;;;;;;;;20.88;41.06;98957.06;5028548;28;19912;-87
2024/03/31 06:22:17;;;;;;;;;;;;;;;20.13;43.03;98952.59;5013612;28;20420;-82
2024/03/31 06:24:45;;;;;;;;;;;;;;;19.86;43.48;98941.88;5013243;28;19909;-81
2024/03/31 06:27:10;;;;;;;;;;;;;;;19.94;43.39;98936.59;5011919;28;19916;-83
2024/03/31 06:29:36;;;;;;;;;;;;;;;19.62;43.76;98949.75;5012155;28;19910;-81
2024/03/31 06:32:01;;;;;;;;;;;;;;;19.83;44.50;98948.50;5012199;28;19909;-83
2024/03/31 06:34:27;;;;;;;;;;;;;;;19.93;45.21;98952.66;5011146;28;20297;-82
2024/03/31 06:36:52;;;;;;;;;;;;;;;19.94;45.01;98957.00;5011742;28;19916;-82
2024/03/31 06:39:17;;;;;;;;;;;;;;;20.43;44.05;98958.03;5011672;28;20285;-82
2024/03/31 06:41:42;;;;;;;;;;;;;;;20.54;44.39;98964.50;5011410;28;19913;-81
2024/03/31 06:44:08;;;;;;;;;;;;;;;20.71;44.97;98959.78;5011973;28;20345;-82
2024/03/31 06:46:33;;;;;;;;;;;;;;;21.66;41.15;98971.56;5013081;28;19923;-86
2024/03/31 06:48:58;;;;;;;;;;;;;;;22.35;40.07;98969.22;5010960;28;19916;-82
2024/03/31 06:51:24;;;;;;;;;;;;;;;22.70;39.23;98969.47;5011135;28;19985;-83
2024/03/31 06:53:50;;;;;;;;;;;;;;;22.99;38.95;98967.41;5012687;28;19921;-84
2024/03/31 06:56:15;;;;;;;;;;;;;;;22.94;38.46;98973.81;5011250;28;19965;-81
2024/03/31 06:58:40;;;;;;;;;;;;;;;23.40;38.25;98968.31;5012070;28;20002;-85
2024/03/31 07:01:06;;;;;;;;;;;;;;;23.71;38.63;98961.56;5010743;28;20043;-83
2024/03/31 07:03:31;;;;;;;;;;;;;;;23.73;37.83;98966.69;5010526;28;19909;-82
2024/03/31 07:05:57;;;;;;;;;;;;;;;23.91;38.79;98960.44;5010921;28;19909;-82
2024/03/31 07:08:22;;;;;;;;;;;;;;;24.62;37.81;98960.50;5009152;28;20382;-83
2024/03/31 07:10:48;;;;;;;;;;;;;;;25.25;34.81;98962.22;5010574;28;20362;-85
2024/03/31 07:13:13;;;;;;;;;;;;;;;25.58;35.58;98956.19;5011031;28;19917;-84
2024/03/31 07:15:38;;;;;;;;;;;;;;;25.94;35.46;98954.69;5011385;28;19959;-81
2024/03/31 07:18:05;;;;;;;;;;;;;;;25.17;35.47;98961.28;5011037;28;20388;-83
2024/03/31 07:20:30;;;;;;;;;;;;;;;24.58;37.42;98960.03;5011222;28;19909;-82
2024/03/31 07:22:56;;;;;;;;;;;;;;;24.61;36.15;98953.31;5011138;28;19920;-80
2024/03/31 07:25:21;;;;;;;;;;;;;;;24.46;37.34;98962.16;5009898;28;20377;-82
2024/03/31 07:27:46;;;;;;;;;;;;;;;24.18;36.44;98962.34;5010467;28;19937;-82
2024/03/31 07:30:12;;;;;;;;;;;;;;;24.20;36.80;98956.19;5011035;28;19921;-81
2024/03/31 07:32:37;;;;;;;;;;;;;;;24.25;36.90;98953.31;5012220;28;20000;-81
2024/03/31 07:35:03;;;;;;;;;;;;;;;24.38;34.67;98951.94;5011155;28;19971;-81
2024/03/31 07:37:28;;;;;;;;;;;;;;;23.69;35.72;98954.94;5011047;28;19910;-82
2024/03/31 07:39:53;;;;;;;;;;;;;;;23.68;36.90;98950.56;5010830;28;19932;-82
2024/03/31 07:42:18;;;;;;;;;;;;;;;23.80;35.34;98941.53;5010154;28;19913;-81
2024/03/31 07:44:44;;;;;;;;;;;;;;;23.29;36.50;98947.84;5010853;28;20000;-80
2024/03/31 07:47:09;;;;;;;;;;;;;;;23.06;36.45;98949.97;5010448;28;20391;-81
2024/03/31 07:49:34;;;;;;;;;;;;;;;23.75;36.26;98935.91;5010487;28;19910;-81
2024/03/31 07:52:00;;;;;;;;;;;;;;;23.68;36.60;98956.97;5010407;28;19909;-81
2024/03/31 07:54:25;;;;;;;;;;;;;;;23.92;37.33;98939.41;5011716;28;19909;-84
2024/03/31 07:56:51;;;;;;;;;;;;;;;24.27;37.00;98933.03;5010851;28;20384;-84
2024/03/31 07:59:17;;;;;;;;;;;;;;;23.79;37.48;98927.94;5009757;28;20336;-82
2024/03/31 08:01:42;;;;;;;;;;;;;;;23.48;35.96;98943.97;5012339;28;19909;-81
2024/03/31 08:04:07;;;;;;;;;;;;;;;23.30;37.92;98933.25;5031268;28;19909;-81
2024/03/31 08:06:32;;;;;;;;;;;;;;;23.59;37.04;98939.56;5014652;28;19949;-81
2024/03/31 08:08:58;;;;;;;;;;;;;;;23.96;36.65;98937.06;5014315;28;19924;-81
2024/03/31 08:11:23;;;;;;;;;;;;;;;24.46;36.66;98936.75;5012843;28;19956;-82
2024/03/31 08:13:48;;;;;;;;;;;;;;;23.82;35.93;98950.22;5013546;28;19910;-81
2024/03/31 08:16:14;;;;;;;;;;;;;;;24.05;37.69;98936.75;5012965;28;19921;-82
2024/03/31 08:18:42;;;;;;;;;;;;;;;24.70;35.51;98944.50;5014738;28;19905;-81
2024/03/31 08:21:07;;;;;;;;;;;;;;;24.75;35.91;98943.69;5014280;28;19910;-84
2024/03/31 08:23:33;;;;;;;;;;;;;;;24.37;34.21;98942.72;5015069;28;19916;-87
2024/03/31 08:25:58;;;;;;;;;;;;;;;24.45;36.85;98940.09;5015175;28;19970;-85
2024/03/31 08:28:23;;;;;;;;;;;;;;;23.78;34.99;98934.84;5015001;28;19932;-83
2024/03/31 08:30:48;;;;;;;;;;;;;;;23.89;36.29;98929.16;5014679;28;19960;-86
2024/03/31 08:33:14;;;;;;;;;;;;;;;24.19;35.82;98921.53;5005906;28;19916;-85
2024/03/31 08:35:39;;;;;;;;;;;;;;;24.43;36.97;98918.00;5010468;28;20381;-86
2024/03/31 08:38:04;;;;;;;;;;;;;;;24.93;36.63;98917.56;5013760;28;19945;-84
2024/03/31 08:40:31;;;;;;;;;;;;;;;23.73;35.57;98916.69;5030005;28;20293;-84
2024/03/31 08:43:04;;;;;;;;;;;;;;;24.55;36.23;98916.63;5013952;28;19905;-84
2024/03/31 08:45:29;;;;;;;;;;;;;;;24.82;36.79;98923.31;5030121;28;19996;-84
2024/03/31 08:47:56;;;;;;;;;;;;;;;24.90;34.12;98924.28;5013737;28;20344;-84
2024/03/31 08:50:22;;;;;;;;;;;;;;;24.88;34.87;98915.56;5013726;28;19910;-83
2024/03/31 08:52:47;;;;;;;;;;;;;;;25.14;34.03;98912.19;5013572;28;20336;-83
2024/03/31 08:55:13;;;;;;;;;;;;;;;24.89;32.98;98905.81;5012411;28;19913;-82
2024/03/31 08:57:38;;;;;;;;;;;;;;;25.09;33.29;98908.13;5002386;28;19910;-84
2024/03/31 09:00:04;;;;;;;;;;;;;;;24.66;33.18;98876.97;5012366;28;19913;-83
2024/03/31 09:02:30;;;;;;;;;;;;;;;24.93;35.28;98908.34;5013182;28;19909;-85
2024/03/31 09:04:55;;;;;;;;;;;;;;;25.22;34.17;98889.75;5014134;28;19980;-84
2024/03/31 09:07:20;;;;;;;;;;;;;;;24.91;35.30;98905.25;5013148;28;20015;-84
2024/03/31 09:09:46;;;;;;;;;;;;;;;25.11;33.93;98897.06;5029384;28;19917;-84
2024/03/31 09:12:12;;;;;;;;;;;;;;;25.09;35.99;98896.06;5013061;28;19909;-86
2024/03/31 09:14:37;;;;;;;;;;;;;;;24.70;34.81;98888.75;5013748;28;19909;-84
2024/03/31 09:17:03;;;;;;;;;;;;;;;24.69;36.05;98887.22;5013123;28;19913;-83
2024/03/31 09:19:28;;;;;;;;;;;;;;;25.04;34.47;98877.88;5013492;28;20417;-84
2024/03/31 09:21:54;;;;;;;;;;;;;;;25.10;32.91;98881.41;5012525;28;19913;-83
2024/03/31 09:24:19;;;;;;;;;;;;;;;24.33;33.78;98880.09;5014894;28;19975;-83
2024/03/31 09:26:44;;;;;;;;;;;;;;;24.57;32.69;98882.97;5014053;28;20369;-83
2024/03/31 09:29:10;;;;;;;;;;;;;;;24.42;33.79;98879.75;5014792;28;19909;-83
2024/03/31 09:31:41;;;;;;;;;;;;;;;24.76;34.60;98883.03;5013717;28;19909;-83
2024/03/31 09:34:07;;;;;;;;;;;;;;;25.36;34.11;98882.91;5013593;28;20357;-84
2024/03/31 09:36:36;;;;;;;;;;;;;;;26.01;33.86;98876.84;5014726;28;19955;-84
2024/03/31 09:39:01;;;;;;;;;;;;;;;25.78;33.10;98876.44;5014245;28;19983;-84
2024/03/31 09:41:26;;;;;;;;;;;;;;;26.25;30.05;98873.16;5013805;28;20285;-84
2024/03/31 09:43:53;;;;;;;;;;;;;;;25.86;33.07;98879.41;5013242;28;19918;-85
2024/03/31 09:46:19;;;;;;;;;;;;;;;26.11;33.20;98868.72;5013369;28;19909;-85
2024/03/31 09:48:46;;;;;;;;;;;;;;;25.19;32.06;98874.63;5013056;28;20381;-83
2024/03/31 09:51:13;;;;;;;;;;;;;;;25.07;32.58;98871.16;5013599;28;19959;-83
2024/03/31 09:53:40;;;;;;;;;;;;;;;25.83;33.85;98866.31;5029632;28;19967;-84
2024/03/31 09:56:07;;;;;;;;;;;;;;;25.88;33.64;98857.75;5013510;28;19943;-86
2024/03/31 09:58:33;;;;;;;;;;;;;;;26.06;32.49;98858.25;5013035;28;19914;-83
2024/03/31 10:01:00;;;;;;;;;;;;;;;25.66;30.95;98860.16;5012204;28;19913;-84
2024/03/31 10:03:27;;;;;;;;;;;;;;;25.19;30.58;98860.50;5011485;28;19924;-83
2024/03/31 10:05:54;;;;;;;;;;;;;;;24.95;32.21;98860.50;5013888;28;20417;-83
2024/03/31 10:08:20;;;;;;;;;;;;;;;25.39;32.90;98856.34;5012905;28;20060;-84
2024/03/31 10:10:46;;;;;;;;;;;;;;;25.58;31.64;98851.50;5012528;28;19916;-85
2024/03/31 10:13:13;;;;;;;;;;;;;;;26.02;32.39;98855.72;5012383;28;19922;-84
2024/03/31 10:15:39;;;;;;;;;;;;;;;26.41;30.76;98849.44;5011911;28;19909;-84
2024/03/31 10:18:06;;;;;;;;;;;;;;;26.83;31.28;98856.13;5011030;28;19968;-86
2024/03/31 10:20:31;;;;;;;;;;;;;;;26.68;31.48;98848.19;5012664;28;19917;-84
2024/03/31 10:22:57;;;;;;;;;;;;;;;26.42;30.54;98848.13;5011108;28;20309;-83
2024/03/31 10:25:24;;;;;;;;;;;;;;;26.30;31.51;98855.28;5010758;28;19932;-83
2024/03/31 10:27:50;;;;;;;;;;;;;;;26.25;30.90;98856.16;5011552;28;19964;-82
2024/03/31 10:30:16;;;;;;;;;;;;;;;26.65;31.99;98849.25;5011695;28;19909;-86
2024/03/31 10:32:42;;;;;;;;;;;;;;;26.95;29.11;98851.03;5011015;28;20007;-84
2024/03/31 10:35:07;;;;;;;;;;;;;;;26.51;30.14;98850.56;5010911;28;20004;-83
2024/03/31 10:37:33;;;;;;;;;;;;;;;26.66;29.98;98842.28;5012176;28;19909;-86
2024/03/31 10:39:59;;;;;;;;;;;;;;;26.77;30.36;98834.88;5012721;28;20369;-86
2024/03/31 10:42:25;;;;;;;;;;;;;;;26.59;31.05;98839.31;5012371;28;20365;-83
2024/03/31 10:44:51;;;;;;;;;;;;;;;26.58;30.44;98834.97;5012414;28;19916;-85
2024/03/31 10:47:17;;;;;;;;;;;;;;;26.54;30.70;98840.97;5011875;28;19914;-84
2024/03/31 10:49:42;;;;;;;;;;;;;;;26.56;30.02;98832.69;5011786;28;19933;-83
2024/03/31 10:52:14;;;;;;;;;;;;;;;26.22;30.07;98832.47;5010827;28;19970;-83
2024/03/31 10:54:40;;;;;;;;;;;;;;;26.27;30.03;98830.91;5011698;28;19977;-84
2024/03/31 10:57:13;;;;;;;;;;;;;;;26.46;30.37;98823.09;5011952;28;19917;-84
2024/03/31 10:59:39;;;;;;;;;;;;;;;26.43;30.05;98821.31;5012202;28;19910;-82
2024/03/31 11:02:14;;;;;;;;;;;;;;;26.19;30.73;98832.81;5010564;28;19952;-82
2024/03/31 11:04:40;;;;;;;;;;;;;;;25.99;31.19;98828.47;5011889;28;19956;-84
2024/03/31 11:07:07;;;;;;;;;;;;;;;25.71;30.81;98823.28;5011191;28;19909;-83
2024/03/31 11:09:32;;;;;;;;;;;;;;;26.00;30.89;98823.59;5011019;28;19972;-82
2024/03/31 11:11:58;;;;;;;;;;;;;;;26.17;30.56;98821.25;5011158;28;19917;-84
2024/03/31 11:14:24;;;;;;;;;;;;;;;26.20;30.90;98806.78;5011436;28;19913;-83
2024/03/31 11:16:50;;;;;;;;;;;;;;;26.12;30.61;98808.69;5011762;28;20423;-84
2024/03/31 11:19:15;;;;;;;;;;;;;;;26.10;30.61;98807.72;5010897;28;19913;-82
2024/03/31 11:21:40;;;;;;;;;;;;;;;26.35;30.82;98803.44;5011090;28;19909;-82
2024/03/31 11:24:06;;;;;;;;;;;;;;;25.61;30.46;98802.34;5011576;28;19905;-85
2024/03/31 11:26:31;;;;;;;;;;;;;;;26.13;30.43;98803.81;5011051;28;19924;-83
2024/03/31 11:28:57;;;;;;;;;;;;;;;26.25;29.68;98800.28;5011313;28;20008;-83
2024/03/31 11:31:23;;;;;;;;;;;;;;;26.07;30.15;98797.47;5011196;28;19967;-83
2024/03/31 11:33:48;;;;;;;;;;;;;;;26.26;30.77;98804.63;5011144;28;20332;-83
2024/03/31 11:36:17;;;;;;;;;;;;;;;26.36;29.14;98802.13;5011065;28;19920;-82
2024/03/31 11:38:42;;;;;;;;;;;;;;;26.39;30.45;98800.28;5009867;28;19929;-84
2024/03/31 11:41:08;;;;;;;;;;;;;;;26.47;30.88;98807.59;5011151;28;20375;-88
2024/03/31 11:43:34;;;;;;;;;;;;;;;26.61;30.56;98817.66;5027986;28;19913;-84
2024/03/31 11:45:59;;;;;;;;;;;;;;;26.56;31.17;98812.84;5011263;28;20056;-83
2024/03/31 11:48:27;;;;;;;;;;;;;;;26.30;30.28;98805.06;5011127;28;19989;-84
2024/03/31 11:50:52;;;;;;;;;;;;;;;26.26;29.68;98801.81;5009813;28;20035;-82
2024/03/31 11:53:18;;;;;;;;;;;;;;;25.80;29.94;98803.03;5010883;28;19949;-82
2024/03/31 11:55:44;;;;;;;;;;;;;;;25.85;31.49;98804.28;5012171;28;19914;-82
2024/03/31 11:58:09;;;;;;;;;;;;;;;26.10;31.84;98807.72;5010602;28;19910;-82
2024/03/31 12:00:34;;;;;;;;;;;;;;;26.07;31.57;98803.13;5010052;28;20380;-83
2024/03/31 12:03:04;;;;;;;;;;;;;;;26.21;31.33;98816.03;5009324;28;19919;-83
2024/03/31 12:05:30;;;;;;;;;;;;;;;26.61;30.50;98809.13;5010431;28;19909;-82
2024/03/31 12:07:55;;;;;;;;;;;;;;;26.75;30.17;98798.56;5010370;28;19967;-83
2024/03/31 12:10:21;;;;;;;;;;;;;;;26.62;31.29;98792.91;5011367;28;19913;-82